Agate, Nebraska
Current Conditions -  °F | °C
As of 11:53 PM on Sunday 23 Nov 2014 (Local Time) from KTOR Reporting Station
Clear Clear  
Wind Chill: 16°   Ceiling: Unl
Heat Index: 22°   Visibility: 10mi
Dew Point: 16°   Wind: 5mph
Humidity: 78%   Direction: NA
Pressure: 29.82"   Gusts: NA
Location:  42.42°N, 103.79°W
Report Text: KTOR 240653Z AUTO VRB04KT 10SM CLR M06/M09 A2982 RMK AO2 SLP120 T10561089 400611056
Loading
Personal Weather Stations






























Interactive Weather Map New forecast layout! Learn more

10-Day Weather Forecast

Advertisements
Track Severe Weather on mobile